Terminal Aerodrome Forecast
Issued by NWS

Home | Current Version | Previous Version | Text Only | Print | Product List | Glossary On
Versions: 1 2 3 4 5 6 7 8 9 10 11 12 13 14 15 16 17 18 19 20 21 22 23 24
000
FTUS41 KRNK 261136
TAFBCB
TAF
KBCB 261136Z 2612/2712 00000KT 1/2SM FG VV002
     FM261300 31004KT P6SM SCT035
     FM261800 33005KT P6SM SCT040 BKN090
     FM270000 VRB03KT P6SM SCT080
     FM270700 00000KT 1/2SM FG VV001=

USA.gov is the U.S. government's official web portal to all federal, state and local government web resources and services.